In Rescue
 
Open Full Screen Window  High Contrast Mode
Wind Gusting 00 knots
07
June 22, 2024 7:47 PM CDT
Weather Information
Wind Direction
  330 °
Wind Speed
  07 kt (8 mph)
Wind Gust
  00 kt (0 mph)
Altimeter
29.87 in
Visibility
10 SM
Temperature
23° C
73° F
Dewpoint
17° C
63° F
Humidity
69%
Sky Condition
Clear
VFR

METAR KLYV 230047Z AUTO 33007KT 10SM CLR 23/17 A2987 RMK AO2

FAA Disclaimer: The data displayed is for advisory purposes only and is not to be used for flight planning or operations.